Weather observations for the past three days for
Effingham, Effingham County Memorial Airport
Imperial (Metric)
Date Time (cdt) Wind (mph) Vis. (mi.) Weather Sky Cond. Temperature (ºF) Relative Humidity Wind Chill (°F) Heat Index (°F) Pressure Precipitation (in)
Air Dwpt 6 hour altimeter (in) sea level (mb) 1 hr 3 hr 6 hr
Max. Min.
04 02:35 SW 12 10.00 Mostly Cloudy SCT085 BKN110 59 50.5 74% 29.82 0.0
04 02:15 W 5 10.00 Mostly Cloudy BKN110 56.8 49.5 76% 29.81 0.0
04 01:55 S 5 10.00 Light Rain SCT070 BKN100 54 49.8 86% 29.82 0.0
04 01:35 S 3 10.00 Partly Cloudy SCT100 52.9 50.7 92% 29.83 0.0
04 01:15 Calm 10.00 Fair CLR 54.3 49.3 83% 29.83 0.0
04 00:55 S 3 10.00 Fair CLR 54.5 48.4 65.7 53.1 80% 29.83 0.0 0.01
04 00:35 SE 7 10.00 Fair CLR 54.7 48 78% 29.82 0.0
04 00:15 SE 7 10.00 Fair CLR 53.6 48.7 84% 29.82 0.0
03 23:55 SE 6 10.00 Fair CLR 54 50 87% 29.83 0.0
03 23:35 SE 7 10.00 Fair CLR 55.6 48.6 77% 29.84 0.0
03 23:15 SE 8 10.00 Partly Cloudy SCT080 56.5 47.8 73% 29.84 0.0
03 22:55 SE 8 10.00 Partly Cloudy SCT080 54.9 49.8 83% 29.85 0.0 0.01
03 22:35 E 5 10.00 Partly Cloudy SCT060 SCT080 SCT100 55.6 50.4 83% 29.87 0.0 0.01
03 22:15 S 7 10.00 Heavy Rain SCT060 BKN080 BKN100 55.8 52.9 90% 29.88 0.0 0.01
03 21:55 Calm 10.00 Light Rain BKN080 OVC100 58.6 47.5 67% 29.89 0.0
03 21:35 Calm 10.00 Partly Cloudy SCT080 SCT095 SCT120 58.8 46 63% 29.88 0.0
03 21:15 Calm 10.00 Light Rain SCT050 SCT065 BKN090 57.4 50.5 78% 29.87 0.0
03 20:55 Calm 10.00 Light Rain OVC090 59.5 48.7 68% 29.88 0.0
03 20:35 Calm 10.00 Mostly Cloudy BKN090 61 43.7 53% 29.87 0.0
03 20:15 SE 5 10.00 Partly Cloudy SCT100 60.3 44.6 56% 29.85 0.0
03 19:55 SE 6 10.00 Fair CLR 62.1 43 50% 29.84 0.0
03 19:35 SE 6 10.00 Fair CLR 63.9 41.5 44% 29.85 0.0
03 19:15 S 8 10.00 Fair CLR 65.3 41.4 42% 29.85 0.0
03 18:55 S 10 10.00 Fair CLR 65.8 41.9 67.8 63.3 42% 29.86 0.0
03 18:35 S 13 G 17 10.00 Fair CLR 66.6 41 39% 29.87 0.0
03 18:15 S 16 G 20 10.00 Fair CLR 67.1 41.9 40% 29.88 0.0
03 17:35 S 13 G 20 10.00 Fair CLR 67.5 41.9 40% 29.88 0.0
03 17:15 S 14 G 26 10.00 Fair CLR 67.8 42.4 40% 29.87 0.0
03 16:55 S 12 G 24 10.00 Fair CLR 66.6 41.4 40% 29.87 0.0
03 16:35 S 12 G 23 10.00 Fair CLR 67.1 42.4 41% 29.88 0.0
03 16:15 S 16 G 29 10.00 Fair CLR 67.1 42.8 41% 29.89 0.0
03 15:55 S 16 G 31 10.00 Fair CLR 66.9 42.6 41% 29.9 0.0
03 15:35 S 18 G 22 10.00 Fair CLR 66.6 42.6 42% 29.91 0.0
03 15:15 S 15 G 22 10.00 Fair CLR 66.9 43 42% 29.93 0.0
03 14:55 S 20 G 25 10.00 Fair CLR 65.5 42.6 44% 29.95 0.0
03 14:35 S 18 G 29 10.00 Fair CLR 64 41.4 44% 29.96 0.0
03 14:15 S 16 G 31 10.00 Fair CLR 64.6 42.6 45% 29.98 0.0
03 13:55 S 17 G 29 10.00 Fair CLR 64.2 41.7 44% 29.99 0.0
03 13:35 S 12 G 26 10.00 Fair CLR 64.6 43.9 47% 30.01 0.0
03 13:15 S 18 G 24 10.00 Fair CLR 64 42.1 45% 30.01 0.0
03 12:55 S 20 G 26 10.00 Fair CLR 63 42.4 63 42.4 47% 30.02 0.0
03 12:35 S 18 G 24 10.00 Fair CLR 62.6 41.5 46% 30.04 0.0
03 12:15 S 17 G 24 10.00 Fair CLR 62.4 41.2 46% 30.06 0.0
03 11:55 S 16 G 22 10.00 Fair CLR 61.3 41.9 49% 30.07 0.0
03 11:35 S 17 G 21 10.00 Fair CLR 61 42.6 51% 30.08 0.0
03 11:15 S 15 G 21 10.00 Fair CLR 59.9 42.3 52% 30.09 0.0
03 10:55 S 15 10.00 Fair CLR 59.2 42.1 53% 30.09 0.0
03 10:35 S 16 G 24 10.00 Fair CLR 58.5 41 52% 30.1 0.0
03 10:15 S 13 G 21 10.00 Partly Cloudy SCT110 57.7 41.7 55% 30.1 0.0
03 09:55 S 14 10.00 Fair CLR 56.5 41 56% 30.11 0.0
03 09:35 S 17 G 21 10.00 Fair CLR 55.6 41 58% 30.11 0.0
03 09:15 S 10 G 16 10.00 Fair CLR 55 40.8 59% 30.11 0.0
03 08:55 S 7 10.00 Fair CLR 53.8 41.9 64% 30.12 0.0
03 08:35 S 8 10.00 Fair CLR 51.6 42.4 71% 30.12 0.0
03 08:15 S 7 10.00 Fair CLR 49.6 43 78% 47 30.13 0.0
03 07:55 S 8 10.00 Fair CLR 47.1 41.9 82% 44 30.12 0.0
03 07:35 S 6 10.00 Fair CLR 45.7 41.5 86% 43 30.11 0.0
03 07:15 S 7 10.00 Fair CLR 43.9 41 90% 40 30.11 0.0
03 06:55 S 5 10.00 Fair CLR 42.3 40.6 42.3 39.2 94% 40 30.11 0.0
03 06:35 SE 5 10.00 Fair CLR 40.6 40.1 98% 38 30.11 0.0
03 06:15 SE 3 10.00 Fair CLR 40.1 39.2 97% 30.1 0.0
03 05:55 SE 3 10.00 Fair CLR 40.5 39.2 95% 30.11 0.0
03 05:35 S 3 10.00 Fair CLR 40.3 39.2 96% 30.1 0.0
03 05:15 Calm 10.00 Fair CLR 40.5 38.8 94% 30.1 0.0
03 04:55 Calm 10.00 Fair CLR 41 39 93% 30.11 0.0
03 04:35 S 3 10.00 Fair CLR 40.8 38.5 91% 30.11 0.0
03 04:15 Calm 10.00 Fair CLR 41 37.9 89% 30.11 0.0
03 03:55 S 3 10.00 Fair CLR 40.3 37.6 90% 30.12 0.0
03 03:35 Calm 10.00 Fair CLR 40.6 37.4 88% 30.11 0.0
03 03:15 SE 3 10.00 Fair CLR 41.4 36.3 82% 30.11 0.0
03 02:55 S 3 10.00 Fair CLR 41 35.8 82% 30.11 0.0
03 02:35 Calm 10.00 Fair CLR 40.1 37.6 91% 30.11 0.0
03 02:15 Calm 10.00 Fair CLR 39.4 38.5 97% 30.11 0.0
03 01:55 Calm 10.00 Fair CLR 39.4 39.2 99% 30.11 0.0
03 01:35 SE 3 10.00 Fair CLR 40.1 39.9 99% 30.11 0.0
03 01:15 Calm 10.00 Fair CLR 40.1 40.1 100% 30.12 0.0
03 00:55 Calm 10.00 Fair CLR 39.7 39.7 55.8 39.7 100% 30.13 0.0
03 00:35 Calm 10.00 Fair CLR 40.1 40.1 100% 30.13 0.0
03 00:15 Calm 10.00 Fair CLR 40.5 40.1 99% 30.13 0.0
02 23:55 Calm 10.00 Fair CLR 41.2 40.8 99% 30.12 0.0
02 23:35 Calm 10.00 Fair CLR 41 39.2 93% 30.12 0.0
02 23:15 Calm 10.00 Fair CLR 41.4 40.8 98% 30.13 0.0
02 22:55 Calm 10.00 Fair CLR 41.9 41 97% 30.13 0.0
02 22:35 Calm 10.00 Fair CLR 42.4 41 95% 30.13 0.0
02 22:15 Calm 10.00 Fair CLR 42.8 40.5 91% 30.13 0.0
02 21:55 Calm 10.00 Fair CLR 43.2 39.7 88% 30.13 0.0
02 21:35 Calm 10.00 Fair CLR 44.8 37.8 76% 30.12 0.0
02 21:15 Calm 10.00 Fair CLR 45.1 35.6 69% 30.12 0.0
02 20:55 Calm 10.00 Fair CLR 46.2 39 76% 30.11 0.0
02 20:35 Calm 10.00 Fair CLR 47.3 35.1 63% 30.11 0.0
02 20:15 Calm 10.00 Fair CLR 48.7 37.8 66% 30.11 0.0
02 19:55 Calm 10.00 Fair CLR 50.5 37.4 61% 30.1 0.0
02 19:35 Calm 10.00 Fair CLR 53.1 31.3 44% 30.1 0.0
02 19:15 Calm 10.00 Partly Cloudy SCT070 SCT080 55 30.7 40% 30.1 0.0
02 18:55 Calm 10.00 Mostly Cloudy BKN075 55.9 29.3 58.5 52.9 36% 30.09 0.0
02 18:35 NW 5 10.00 Partly Cloudy SCT075 55.2 30.2 39% 30.1 0.0
02 18:15 W 5 10.00 Partly Cloudy SCT085 55.9 28.2 35% 30.09 0.0
02 17:55 NW 8 10.00 Overcast OVC075 56.3 30.6 38% 30.09 0.0
02 17:35 N 6 10.00 Overcast OVC075 55.6 29.7 37% 30.09 0.0
02 17:15 NW 8 10.00 Mostly Cloudy BKN075 BKN085 57.7 29.8 35% 30.09 0.0
02 16:55 NW 8 10.00 Mostly Cloudy SCT070 BKN085 56.8 30.4 37% 30.09 0.0
02 16:35 W 8 10.00 Partly Cloudy SCT070 SCT085 58.5 32.4 37% 30.09 0.0
02 16:15 W 9 10.00 Partly Cloudy SCT070 SCT085 57.9 31.1 36% 30.09 0.0
02 15:55 NW 10 G 18 10.00 Partly Cloudy SCT070 SCT085 57.6 31.3 37% 30.1 0.0
02 15:35 N 3 10.00 Mostly Cloudy SCT070 BKN085 55.6 31.1 39% 30.1 0.0
02 15:15 N 5 10.00 Mostly Cloudy SCT070 BKN085 57.4 31.1 37% 30.11 0.0
02 14:35 NW 7 10.00 Overcast SCT055 OVC070 54.5 31.3 41% 30.11 0.0
02 14:15 N 5 10.00 Mostly Cloudy BKN055 BKN070 BKN080 55.6 33.3 43% 30.11 0.0
02 13:55 N 3 10.00 Partly Cloudy SCT070 SCT080 55.8 34.7 45% 30.11 0.0
02 13:35 N 6 10.00 Overcast SCT050 SCT070 OVC080 54.7 33.8 45% 30.12 0.0
02 13:15 NW 5 10.00 Overcast SCT046 SCT050 OVC080 54.3 33.8 46% 30.12 0.0
02 12:55 N 7 10.00 Overcast SCT046 BKN055 OVC080 52.9 35.8 56.1 45 52% 30.13 0.0
02 12:35 Calm 10.00 Overcast BKN044 BKN055 OVC080 53.8 35.8 51% 30.13 0.0
02 12:15 N 8 10.00 Mostly Cloudy SCT039 BKN046 54.7 36 49% 30.14 0.0
02 11:55 E 7 10.00 Mostly Cloudy BKN039 BKN048 BKN060 54 37.6 54% 30.14 0.0
02 11:35 E 8 10.00 Mostly Cloudy SCT041 SCT049 BKN080 54.7 38.8 55% 30.14 0.0
02 11:15 E 3 10.00 Partly Cloudy SCT070 53.4 38.5 57% 30.14 0.0
02 10:55 E 5 10.00 Mostly Cloudy BKN070 BKN080 51.3 37 58% 30.14 0.0
02 10:35 E 5 10.00 Overcast SCT055 OVC070 50.4 37.4 61% 30.14 0.0
02 10:15 N 3 10.00 Overcast OVC050 49.6 37.4 63% 30.14 0.0
02 09:55 E 7 10.00 Overcast SCT050 OVC065 49.8 38.3 65% 47 30.14 0.0
02 09:35 NE 8 10.00 Mostly Cloudy BKN065 48.6 38.5 68% 45 30.13 0.0
02 09:15 E 9 10.00 Mostly Cloudy BKN065 47.7 39.7 74% 44 30.12 0.0
02 08:55 NE 8 10.00 Mostly Cloudy SCT050 BKN070 45.7 40.8 83% 42 30.13 0.0
02 08:35 NE 3 10.00 Overcast BKN050 OVC075 45 41.4 87% 30.12 0.0
02 08:15 NE 3 10.00 Overcast SCT010 BKN060 OVC075 45.5 42.3 89% 30.12 0.0
02 07:55 Calm 10.00 Overcast SCT010 BKN048 OVC075 45.9 44.1 93% 30.11 0.0
02 07:35 NE 5 10.00 Overcast OVC046 46 43.7 92% 44 30.11 0.0
02 07:15 NE 6 10.00 Overcast OVC046 46 43.7 92% 44 30.1 0.0
02 06:55 Calm 10.00 Overcast OVC046 46 43.7 48.2 45.1 92% 30.09 0.0
02 06:35 Calm 10.00 Overcast OVC046 46 43 89% 30.09 0.0
02 06:15 Calm 10.00 Overcast BKN050 OVC070 45.7 43.2 91% 30.08 0.0
02 05:55 Calm 10.00 Mostly Cloudy BKN060 BKN080 BKN100 45.1 44.1 96% 30.08 0.0
02 05:35 Calm 10.00 Mostly Cloudy SCT060 SCT070 BKN095 45.3 43.9 95% 30.07 0.0
02 05:15 Calm 10.00 Overcast SCT070 OVC095 45.7 43.9 93% 30.07 0.0
02 04:55 Calm 10.00 Overcast SCT050 SCT070 OVC085 45.7 44.1 94% 30.07 0.0
02 04:35 Calm 10.00 Overcast BKN050 OVC060 45.9 44.6 95% 30.08 0.0
02 04:15 Calm 10.00 Mostly Cloudy BKN050 BKN070 45.5 44.1 95% 30.08 0.0
02 03:55 Calm 10.00 Mostly Cloudy BKN060 BKN070 BKN080 45.7 43.9 93% 30.07 0.0
02 03:35 Calm 10.00 Overcast SCT060 SCT075 OVC100 46.2 44.4 93% 30.08 0.0
02 03:15 Calm 10.00 Overcast BKN060 BKN075 OVC100 46.6 45.1 95% 30.07 0.0
02 02:55 Calm 10.00 Mostly Cloudy BKN060 BKN100 46.6 45 94% 30.07 0.0
02 02:35 E 3 10.00 Mostly Cloudy SCT050 BKN100 46.6 44.6 93% 30.07 0.0
02 02:15 Calm 10.00 Light Rain OVC050 47.3 43.5 87% 30.08 0.0
02 01:55 Calm 10.00 Light Rain BKN060 OVC070 47.5 43.2 85% 30.07 0.0
02 01:35 Calm 10.00 Overcast SCT070 OVC085 47.7 41.7 80% 30.08 0.0
02 01:15 Calm 10.00 Overcast OVC075 47.8 42.1 81% 30.08 0.0
02 00:55 Calm 10.00 Overcast SCT065 OVC075 48.2 41.2 56.3 47.7 77% 30.08 0.0
02 00:35 E 3 10.00 Overcast SCT065 SCT080 OVC110 48.2 41 76% 30.08 0.0
02 00:15 E 3 10.00 Overcast SCT065 OVC110 47.8 41.9 80% 30.07 0.0
01 23:55 NE 5 10.00 Overcast SCT065 SCT090 OVC110 48.2 42.4 81% 47 30.07 0.0
01 23:35 NE 3 10.00 Overcast SCT065 BKN080 OVC110 48.2 43.2 83% 30.08 0.0
01 23:15 E 5 10.00 Mostly Cloudy BKN110 48.2 43 82% 47 30.08 0.0
01 22:55 E 5 10.00 Mostly Cloudy SCT085 BKN110 48.6 42.4 80% 47 30.09 0.0
01 22:35 NE 3 10.00 Light Rain BKN075 OVC110 49.3 42.3 77% 30.09 0.0
01 22:15 E 5 10.00 Overcast SCT055 BKN075 OVC100 50 41.9 74% 49 30.09 0.0
01 21:55 NE 3 10.00 Overcast SCT065 SCT075 OVC095 50.4 42.1 73% 30.09 0.0
01 21:35 Calm 10.00 Overcast BKN065 OVC085 50 42.4 75% 30.08 0.0
01 21:15 NE 3 10.00 Mostly Cloudy BKN065 49.1 42.1 77% 30.07 0.0
01 20:35 Calm 10.00 Mostly Cloudy SCT075 BKN100 49.8 44.4 82% 30.06 0.0
01 20:15 Calm 10.00 Mostly Cloudy SCT075 BKN090 50.4 43.9 79% 30.05 0.0
01 19:55 Calm 10.00 Mostly Cloudy BKN100 51.8 42.1 70% 30.04 0.0
01 19:35 Calm 10.00 Fair CLR 53.6 35.8 51% 30.04 0.0
01 19:15 Calm 10.00 Fair CLR 54.7 36 49% 30.03 0.0
01 18:55 NW 8 10.00 Fair CLR 56.3 34.7 58.6 54.7 44% 30.02 0.0
01 18:35 NW 9 10.00 Fair CLR 56.8 34.3 43% 30.01 0.0
01 18:15 NW 5 10.00 Fair CLR 57.2 34.7 43% 30.01 0.0
01 17:55 NW 8 10.00 Partly Cloudy SCT100 57.4 35.6 44% 30.03 0.0
01 17:35 NW 8 10.00 Mostly Cloudy BKN100 56.8 36.5 47% 30.03 0.0
01 17:15 W 5 10.00 Partly Cloudy SCT100 56.5 36.3 47% 30.04 0.0
01 16:55 W 8 10.00 Partly Cloudy SCT095 57.2 36.1 45% 30.04 0.0
01 16:35 NW 7 10.00 Mostly Cloudy BKN095 56.8 36.5 47% 30.04 0.0
01 16:15 NW 10 10.00 Mostly Cloudy SCT050 SCT060 BKN095 58.5 37 45% 30.05 0.0
01 15:55 NW 5 10.00 Mostly Cloudy BKN050 BKN060 BKN085 55.6 37 50% 30.06 0.0
01 15:35 W 7 10.00 Partly Cloudy SCT050 SCT060 SCT070 56.7 35.8 46% 30.06 0.0
01 15:15 W 10 10.00 Partly Cloudy SCT055 SCT070 SCT090 58.6 37.4 45% 30.07 0.0
01 14:55 W 7 10.00 Partly Cloudy SCT060 SCT075 SCT090 56.3 37 49% 30.07 0.0
01 14:35 NW 7 10.00 Mostly Cloudy SCT075 BKN090 57.4 36.9 46% 30.07 0.0
01 14:15 NW 9 10.00 Mostly Cloudy SCT065 BKN075 56.1 36.7 48% 30.08 0.0
01 13:55 NW 8 10.00 Mostly Cloudy SCT047 BKN065 BKN075 55.2 36.9 50% 30.08 0.0
01 13:35 W 7 10.00 Mostly Cloudy SCT049 SCT055 BKN065 57 37.6 48% 30.08 0.0
01 13:15 NW 9 G 16 10.00 Mostly Cloudy SCT049 BKN065 55.2 37.2 51% 30.08 0.0
01 12:55 W 10 G 17 10.00 Mostly Cloudy SCT047 BKN060 BKN075 55.8 38.5 56.1 45.7 52% 30.07 0.0
01 12:35 NW 9 G 13 10.00 Overcast BKN047 OVC060 55.2 38.7 54% 30.07 0.0
01 12:15 NW 12 G 17 10.00 Mostly Cloudy SCT045 BKN050 55.2 37.2 51% 30.08 0.0
01 11:55 NW 12 G 16 10.00 Mostly Cloudy BKN039 BKN050 54.5 40.8 60% 30.07 0.0
01 11:35 NW 12 10.00 Mostly Cloudy BKN039 BKN050 53.2 38.7 58% 30.07 0.0
01 11:15 NW 10 G 16 10.00 Partly Cloudy SCT035 SCT047 53.8 39 58% 30.08 0.0
01 10:55 W 10 G 17 10.00 Mostly Cloudy BKN035 BKN049 54 39.9 59% 30.08 0.0
01 10:35 NW 12 G 18 10.00 Mostly Cloudy BKN037 BKN046 53.8 40.5 61% 30.07 0.0
01 10:15 NW 14 G 18 10.00 Mostly Cloudy SCT033 SCT039 BKN046 51.3 38.8 63% 30.06 0.0
01 09:55 NW 13 10.00 Partly Cloudy SCT031 SCT044 51.6 41 67% 30.06 0.0
01 09:35 NW 13 G 17 10.00 Fair CLR 51.1 42.1 71% 30.06 0.0
01 09:15 NW 13 10.00 Fair CLR 49.6 41.9 75% 45 30.06 0.0
01 08:55 NW 10 10.00 Partly Cloudy SCT024 49.1 40.8 73% 45 30.05 0.0
01 08:35 W 14 10.00 Partly Cloudy SCT024 48.2 39.6 72% 43 30.05 0.0
01 08:15 NW 14 10.00 Fair CLR 47.8 37.8 68% 43 30.04 0.0
01 07:55 W 15 G 21 10.00 Fair CLR 47.3 36.9 67% 42 30.04 0.0
01 07:35 W 13 G 18 10.00 Fair CLR 47.3 36.9 67% 42 30.04 0.0
01 07:15 W 9 10.00 Fair CLR 46.9 40.1 77% 43 30.03 0.0
01 06:55 W 7 10.00 Fair CLR 45.7 41 53.1 45 84% 43 30.02 0.0 0.1
01 06:35 W 10 10.00 Fair CLR 45 39 80% 40 30.01 0.0
01 06:15 W 9 10.00 Fair CLR 45.5 39.9 81% 41 30.01 0.0
01 05:55 W 8 10.00 Fair CLR 45.9 40.6 82% 42 30 0.0
01 05:35 W 12 10.00 Fair CLR 47.3 41.7 81% 43 30 0.0
01 05:15 W 10 G 20 10.00 Partly Cloudy SCT095 48.2 44.6 87% 44 30 0.0
01 04:55 W 9 10.00 Partly Cloudy SCT095 47.8 46.9 97% 44 29.99 0.0
01 04:35 W 6 10.00 Mostly Cloudy SCT060 BKN085 48 47.5 98% 46 29.99 0.0
01 04:15 W 6 10.00 Overcast SCT060 OVC075 49.3 47.5 94% 47 29.99 0.0
01 03:55 W 8 10.00 Overcast OVC075 50.2 47.8 92% 29.99 0.0 0.1
01 03:35 W 7 10.00 Overcast OVC065 50.5 48.4 92% 29.98 0.0
01 03:15 W 10 10.00 Light Rain SCT042 SCT048 OVC055 50.7 50.2 98% 29.98 0.0
01 02:55 W 8 7.00 Rain SCT011 BKN048 OVC055 50.9 50.9 100% 29.99 0.0 0.1
Date Time (cdt) Wind (mph) Vis. (mi.) Weather Sky Cond. Air Dwpt Max. Min. Relative Humidity Wind Chill (°F) Heat Index (°F) altimeter (in) sea level (mb) 1 hr 3 hr 6 hr
6 hour
Temperature (ºF) Pressure Precipitation (in)